LFRC/CER METAR and TAF weather

Enter ICAO airport designator
Station Type Date Time Source
LFRC METAR 2019/08/18 19:00 UTC NOAA

LFRC 181900Z AUTO 26010KT 9999 SCT020 SCT025 BKN032 15/12 Q1012


Station Type Date Time Source
LFRC Decoded METAR 2019/08/18 19:00 UTC NOAA

Station name not available
Aug 18, 2019 - 03:00 PM EDT / 2019.08.18 1900 UTC
Wind: from the W (260 degrees) at 12 MPH (10 KT):0
Visibility: greater than 7 mile(s):0
Sky conditions: mostly cloudy
Temperature: 59 F (15 C)
Dew Point: 53 F (12 C)
Relative Humidity: 82%
Pressure (altimeter): 29.88 in. Hg (1012 hPa)
ob: LFRC 181900Z AUTO 26010KT 9999 SCT020 SCT025 BKN032 15/12 Q1012
cycle: 19

Station Type Date Time Source
LFRC TAF 2008/10/12 17:07 UTC NOAA

TAF
AMD LFRC 121707Z 121721 CNL

Example: see airport list